Time;durP1;ratioP1;P1;durP2;ratioP2;P2;SDS_P1;SDS_P2;PMS_P1;PMS_P2;Temp;Humidity;BMP_temperature;BMP_pressure;BME280_temperature;BME280_humidity;BME280_pressure;Samples;Min_cycle;Max_cycle;Signal;HPM_P1;HPM_P2
2021/05/18 00:01:32;;;;;;;2.00;1.90;;;12.00;84.30;;;;;;4951775;28;20459;-46
2021/05/18 00:04:00;;;;;;;1.80;1.67;;;12.00;84.00;;;;;;4952908;28;20540;-46
2021/05/18 00:06:28;;;;;;;2.60;1.47;;;12.10;83.40;;;;;;4951580;28;20455;-46
2021/05/18 00:11:43;;;;;;;2.87;1.43;;;12.10;82.90;;;;;;4952544;28;20466;-46
2021/05/18 00:14:23;;;;;;;2.93;1.77;;;12.10;82.30;;;;;;4951163;28;20456;-46
2021/05/18 00:16:52;;;;;;;2.07;1.87;;;12.10;82.80;;;;;;4949396;28;20465;-46
2021/05/18 00:19:20;;;;;;;1.57;1.40;;;12.10;82.80;;;;;;4952158;28;20462;-46
2021/05/18 00:21:48;;;;;;;2.40;1.93;;;12.10;82.80;;;;;;4951444;28;20551;-46
2021/05/18 00:24:16;;;;;;;2.93;1.50;;;12.10;83.10;;;;;;4949847;28;20976;-46
2021/05/18 00:26:44;;;;;;;2.70;1.83;;;12.10;82.90;;;;;;4949779;28;20476;-46
2021/05/18 00:29:13;;;;;;;2.37;1.80;;;12.10;83.00;;;;;;4946076;28;21215;-46
2021/05/18 00:31:42;;;;;;;2.00;1.50;;;12.10;83.10;;;;;;4950448;28;20486;-46
2021/05/18 00:34:10;;;;;;;2.23;1.90;;;12.10;83.00;;;;;;4947715;28;20482;-46
2021/05/18 00:36:38;;;;;;;2.43;2.00;;;12.10;83.10;;;;;;4951391;28;20467;-46
2021/05/18 00:39:07;;;;;;;3.70;1.90;;;12.10;83.00;;;;;;4949105;29;20463;-46
2021/05/18 00:41:34;;;;;;;1.70;1.60;;;12.10;82.60;;;;;;4948593;28;20530;-46
2021/05/18 00:44:03;;;;;;;2.23;2.00;;;12.10;82.40;;;;;;4949650;28;20463;-46
2021/05/18 00:46:31;;;;;;;1.93;1.77;;;12.10;82.80;;;;;;4949628;28;20814;-46
2021/05/18 00:48:59;;;;;;;2.23;1.53;;;12.10;83.10;;;;;;4950900;28;20494;-46
2021/05/18 00:51:27;;;;;;;1.47;1.37;;;12.10;83.40;;;;;;4950590;28;20478;-46
2021/05/18 00:53:57;;;;;;;2.20;2.00;;;12.10;83.00;;;;;;4949525;29;20463;-46
2021/05/18 00:58:25;;;;;;;1.60;1.50;;;12.10;82.80;;;;;;4950911;28;20474;-46
2021/05/18 00:59:19;;;;;;;2.83;2.27;;;12.10;82.60;;;;;;4949934;28;20455;-46
2021/05/18 01:01:47;;;;;;;1.93;1.83;;;12.10;83.00;;;;;;4949765;28;20839;-46
2021/05/18 01:04:17;;;;;;;3.07;1.40;;;12.00;83.40;;;;;;4947518;28;20459;-46
2021/05/18 01:06:45;;;;;;;1.60;1.27;;;12.00;83.80;;;;;;4946498;28;20459;-46
2021/05/18 01:09:15;;;;;;;3.27;1.80;;;12.00;83.90;;;;;;4948410;28;20579;-47
2021/05/18 01:11:48;;;;;;;2.67;1.67;;;12.10;83.30;;;;;;4947015;28;20490;-46
2021/05/18 01:14:18;;;;;;;2.00;1.57;;;12.00;83.20;;;;;;4955404;28;20866;-46
2021/05/18 01:16:49;;;;;;;2.23;1.70;;;12.10;82.90;;;;;;4949594;28;20472;-46
2021/05/18 01:19:26;;;;;;;2.20;1.80;;;12.10;82.80;;;;;;4954966;28;20475;-46
2021/05/18 01:21:56;;;;;;;2.80;1.90;;;12.10;83.00;;;;;;4953168;28;20470;-46
2021/05/18 01:24:25;;;;;;;3.23;1.63;;;12.10;83.50;;;;;;4950356;28;20556;-46
2021/05/18 01:26:53;;;;;;;2.17;1.60;;;12.10;83.60;;;;;;4952182;28;20471;-46
2021/05/18 01:29:24;;;;;;;2.30;1.83;;;12.10;84.10;;;;;;4950494;28;20498;-46
2021/05/18 01:31:52;;;;;;;3.23;1.80;;;12.00;84.40;;;;;;4951870;28;20463;-46
2021/05/18 01:34:21;;;;;;;3.73;1.73;;;12.10;84.40;;;;;;4948449;28;20464;-46
2021/05/18 01:36:50;;;;;;;2.33;1.83;;;12.10;84.80;;;;;;4953123;28;20940;-46
2021/05/18 01:44:35;;;;;;;2.10;1.80;;;12.10;84.50;;;;;;4952979;28;20959;-46
2021/05/18 01:47:05;;;;;;;6.50;2.07;;;12.10;84.40;;;;;;4951213;28;20855;-46
2021/05/18 01:49:33;;;;;;;2.87;1.77;;;12.10;84.70;;;;;;4955518;28;20496;-46
2021/05/18 01:52:03;;;;;;;2.73;2.50;;;12.10;84.70;;;;;;4953810;28;20481;-46
2021/05/18 01:54:34;;;;;;;3.10;1.60;;;12.10;84.70;;;;;;4951378;28;20459;-46
2021/05/18 01:57:24;;;;;;;1.73;1.50;;;12.10;84.70;;;;;;4956251;28;20492;-46
2021/05/18 01:59:52;;;;;;;2.10;1.90;;;12.00;84.90;;;;;;4952576;28;20470;-46
2021/05/18 02:02:21;;;;;;;2.03;1.30;;;12.00;85.00;;;;;;4952274;28;20468;-46
2021/05/18 02:04:54;;;;;;;2.73;1.30;;;12.00;85.10;;;;;;4950427;28;20817;-46
2021/05/18 02:07:34;;;;;;;2.20;1.80;;;12.00;85.10;;;;;;4955286;28;20471;-46
2021/05/18 02:10:06;;;;;;;2.30;1.40;;;12.00;84.70;;;;;;4949924;28;20467;-46
2021/05/18 02:12:34;;;;;;;1.30;1.20;;;12.00;84.70;;;;;;4949814;28;20467;-46
2021/05/18 02:15:12;;;;;;;1.50;1.40;;;12.00;84.60;;;;;;4952515;28;20473;-46
2021/05/18 02:17:45;;;;;;;2.33;1.60;;;12.00;84.70;;;;;;4954556;28;20490;-46
2021/05/18 02:21:21;;;;;;;1.77;1.50;;;11.90;84.70;;;;;;4950929;28;20467;-46
2021/05/18 02:25:57;;;;;;;7.13;2.70;;;11.90;84.60;;;;;;4959162;28;20454;-46
2021/05/18 02:28:28;;;;;;;1.87;1.60;;;12.00;84.00;;;;;;4951490;28;20622;-46
2021/05/18 02:30:56;;;;;;;2.47;1.40;;;12.00;83.90;;;;;;4952174;28;20471;-46
2021/05/18 02:33:26;;;;;;;3.17;1.37;;;11.90;84.20;;;;;;4950868;28;20466;-46
2021/05/18 02:35:54;;;;;;;1.53;1.43;;;12.00;84.10;;;;;;4952756;28;20844;-46
2021/05/18 02:38:22;;;;;;;1.47;1.30;;;11.90;83.90;;;;;;4949881;28;20462;-46
2021/05/18 02:40:51;;;;;;;2.77;1.20;;;12.00;83.80;;;;;;4948442;28;20463;-46
2021/05/18 02:43:26;;;;;;;1.83;1.70;;;12.00;84.00;;;;;;4952755;28;20765;-46
2021/05/18 02:51:08;;;;;;;1.40;1.30;;;11.90;83.80;;;;;;4951390;28;20482;-46
2021/05/18 02:53:36;;;;;;;3.23;1.67;;;11.90;83.60;;;;;;4951581;28;20469;-46
2021/05/18 02:56:44;;;;;;;1.60;1.50;;;11.90;83.70;;;;;;4951343;28;20819;-46
2021/05/18 02:59:20;;;;;;;2.30;1.50;;;11.90;83.50;;;;;;4952158;28;20518;-47
2021/05/18 03:01:50;;;;;;;2.47;1.70;;;11.80;83.50;;;;;;4948920;28;20854;-47
2021/05/18 03:04:19;;;;;;;1.00;1.00;;;11.80;83.90;;;;;;4954656;28;20522;-47
2021/05/18 03:06:49;;;;;;;2.67;1.30;;;11.80;84.10;;;;;;4949161;28;20557;-47
2021/05/18 03:09:18;;;;;;;5.70;2.13;;;11.80;84.20;;;;;;4949414;28;20490;-47
2021/05/18 03:11:48;;;;;;;1.80;1.40;;;11.70;84.20;;;;;;4953018;28;20477;-47
2021/05/18 03:14:17;;;;;;;2.10;1.30;;;11.70;84.20;;;;;;4954167;28;20462;-47
2021/05/18 03:16:47;;;;;;;3.13;1.70;;;11.70;84.40;;;;;;4954124;28;20589;-47
2021/05/18 03:19:16;;;;;;;1.53;1.37;;;11.70;84.50;;;;;;4953309;28;20700;-47
2021/05/18 03:21:45;;;;;;;1.63;1.53;;;11.60;84.70;;;;;;4955048;28;20940;-47
2021/05/18 03:24:14;;;;;;;2.57;1.60;;;11.60;84.90;;;;;;4960430;28;20466;-47
2021/05/18 03:26:47;;;;;;;1.67;1.50;;;11.60;84.90;;;;;;4957745;28;20947;-47
2021/05/18 03:34:36;;;;;;;2.37;1.27;;;11.60;84.90;;;;;;4954560;28;20469;-47
2021/05/18 03:39:54;;;;;;;2.30;1.50;;;11.50;84.90;;;;;;4959122;28;20517;-47
2021/05/18 03:42:35;;;;;;;1.90;1.80;;;11.50;84.90;;;;;;4952659;28;20558;-47
2021/05/18 03:58:57;;;;;;;2.70;2.53;;;11.40;85.00;;;;;;4954334;28;20563;-47
2021/05/18 04:04:25;;;;;;;3.23;2.00;;;11.40;85.20;;;;;;4986731;28;20465;-47
2021/05/18 04:23:24;;;;;;;3.37;2.37;;;11.40;85.50;;;;;;4953828;28;20477;-47
2021/05/18 05:06:13;;;;;;;2.20;2.00;;;11.70;84.00;;;;;;4959622;28;20451;-49
2021/05/18 05:09:04;;;;;;;2.60;2.40;;;11.70;84.10;;;;;;4963247;28;20490;-49
2021/05/18 05:14:23;;;;;;;3.33;2.83;;;11.70;84.30;;;;;;4956197;28;20463;-47
2021/05/18 05:16:52;;;;;;;3.50;3.20;;;11.80;84.30;;;;;;4957358;28;20451;-47
2021/05/18 05:19:26;;;;;;;4.90;3.30;;;11.90;84.40;;;;;;4951232;28;20463;-47
2021/05/18 05:21:58;;;;;;;5.63;3.40;;;11.90;84.50;;;;;;4951057;28;20793;-47
2021/05/18 05:24:26;;;;;;;6.10;3.80;;;11.90;84.50;;;;;;4951848;28;20463;-47
2021/05/18 05:26:58;;;;;;;3.73;3.43;;;12.00;84.60;;;;;;4953296;28;20462;-47
2021/05/18 05:29:26;;;;;;;4.30;3.90;;;12.00;84.50;;;;;;4951269;28;20505;-47
2021/05/18 05:31:55;;;;;;;3.57;3.23;;;12.00;84.60;;;;;;4951445;28;20463;-47
2021/05/18 05:34:24;;;;;;;4.07;3.67;;;12.00;84.60;;;;;;4949859;28;20934;-47
2021/05/18 05:36:52;;;;;;;6.93;4.00;;;12.10;84.40;;;;;;4949398;28;20467;-47
2021/05/18 05:39:23;;;;;;;5.40;3.57;;;12.20;84.00;;;;;;4952555;28;20833;-47
2021/05/18 05:41:55;;;;;;;5.33;4.00;;;12.20;83.90;;;;;;4952024;28;20486;-47
2021/05/18 05:44:24;;;;;;;3.90;3.60;;;12.20;83.90;;;;;;4951533;28;20511;-47
2021/05/18 05:46:53;;;;;;;6.30;4.20;;;12.20;84.30;;;;;;4949299;28;20459;-47
2021/05/18 05:49:21;;;;;;;4.97;4.57;;;12.20;84.30;;;;;;4954525;28;20486;-47
2021/05/18 05:51:49;;;;;;;5.40;3.87;;;12.30;84.50;;;;;;4952075;28;20869;-47
2021/05/18 05:54:17;;;;;;;4.30;3.93;;;12.30;84.70;;;;;;4952567;28;20988;-47
2021/05/18 05:56:45;;;;;;;5.07;4.30;;;12.40;84.10;;;;;;4951643;28;20455;-47
2021/05/18 05:59:16;;;;;;;3.57;3.13;;;12.40;83.50;;;;;;4951122;28;20470;-47
2021/05/18 06:01:46;;;;;;;5.40;3.13;;;12.50;83.00;;;;;;4950562;28;20458;-44
2021/05/18 06:04:14;;;;;;;4.17;2.60;;;12.50;83.00;;;;;;4954120;28;20464;-44
2021/05/18 06:06:43;;;;;;;6.10;2.40;;;12.50;83.10;;;;;;4955751;28;20462;-45
2021/05/18 06:09:10;;;;;;;3.70;2.50;;;12.60;82.70;;;;;;4953906;28;20486;-45
2021/05/18 06:11:52;;;;;;;2.73;2.10;;;12.60;82.50;;;;;;4947971;28;20459;-44
2021/05/18 06:14:37;;;;;;;1.93;1.80;;;12.60;81.60;;;;;;4952123;28;20805;-45
2021/05/18 06:47:08;;;;;;;3.00;1.53;;;13.40;78.10;;;;;;4951299;28;20463;-45
2021/05/18 06:49:43;;;;;;;1.97;1.70;;;13.50;78.40;;;;;;4948279;28;21007;-45
2021/05/18 06:52:11;;;;;;;2.73;1.70;;;13.60;78.70;;;;;;4951399;28;20483;-45
2021/05/18 06:54:39;;;;;;;3.13;2.03;;;13.80;77.30;;;;;;4950788;28;21035;-45
2021/05/18 06:57:07;;;;;;;2.00;1.77;;;13.90;77.00;;;;;;4952564;28;20474;-45
2021/05/18 07:02:22;;;;;;;2.97;2.33;;;14.10;76.20;;;;;;4951012;28;20486;-45
2021/05/18 07:04:53;;;;;;;2.70;1.77;;;14.30;75.30;;;;;;4952919;28;20462;-45
2021/05/18 07:07:26;;;;;;;3.10;1.43;;;14.40;73.70;;;;;;4953661;28;20473;-45
2021/05/18 07:09:54;;;;;;;2.77;1.50;;;14.40;73.90;;;;;;4947378;28;20574;-44
2021/05/18 07:12:22;;;;;;;2.47;1.70;;;14.50;73.50;;;;;;4952439;28;20823;-45
2021/05/18 07:14:50;;;;;;;4.00;2.00;;;14.50;73.10;;;;;;4954764;28;20462;-45
2021/05/18 07:17:18;;;;;;;3.13;1.60;;;14.50;72.70;;;;;;4946495;28;20459;-44
2021/05/18 07:19:47;;;;;;;2.80;1.80;;;14.50;72.40;;;;;;4954504;28;20569;-45
2021/05/18 07:22:18;;;;;;;4.33;1.90;;;14.50;72.70;;;;;;4950604;28;20459;-45
2021/05/18 07:24:45;;;;;;;2.80;2.50;;;14.50;72.70;;;;;;4952546;28;20466;-44
2021/05/18 07:27:13;;;;;;;1.67;1.57;;;14.40;73.80;;;;;;4955789;28;20471;-45
2021/05/18 07:29:42;;;;;;;3.50;1.90;;;14.40;74.20;;;;;;4951994;28;20487;-44
2021/05/18 07:32:10;;;;;;;2.80;1.77;;;14.50;73.70;;;;;;4952266;28;20478;-45
2021/05/18 07:34:43;;;;;;;2.17;1.90;;;14.40;74.30;;;;;;4952119;28;20998;-44
2021/05/18 07:37:12;;;;;;;4.03;2.03;;;14.40;74.60;;;;;;4950437;28;20486;-44
2021/05/18 07:39:41;;;;;;;3.40;2.23;;;14.40;74.60;;;;;;4950540;28;20551;-45
2021/05/18 07:42:10;;;;;;;3.37;2.40;;;14.40;74.60;;;;;;4954278;28;20463;-45
2021/05/18 07:44:38;;;;;;;1.93;1.73;;;14.40;76.10;;;;;;4953107;28;20470;-45
2021/05/18 07:47:06;;;;;;;3.70;2.10;;;14.50;76.00;;;;;;4945532;28;20467;-45
2021/05/18 07:49:38;;;;;;;4.50;2.17;;;14.70;72.50;;;;;;4959064;28;20845;-45
2021/05/18 08:05:33;;;;;;;2.80;2.50;;;14.50;76.50;;;;;;4953654;28;20944;-45
2021/05/18 08:08:01;;;;;;;3.40;1.90;;;14.50;76.50;;;;;;4947895;28;20528;-45
2021/05/18 08:12:58;;;;;;;5.00;2.20;;;14.60;76.90;;;;;;4954469;28;20467;-46
2021/05/18 09:01:52;;;;;;;2.30;2.03;;;16.20;66.20;;;;;;4953101;28;20972;-45
2021/05/18 10:36:15;;;;;;;1.80;1.10;;;15.70;68.70;;;;;;4958531;28;20467;-46
2021/05/18 10:38:49;;;;;;;4.33;2.30;;;15.60;69.00;;;;;;4951709;28;20482;-46
2021/05/18 10:41:22;;;;;;;3.20;1.90;;;15.50;70.10;;;;;;4954130;28;20467;-47
2021/05/18 10:43:59;;;;;;;3.90;2.20;;;15.40;71.90;;;;;;4955615;28;20458;-46
2021/05/18 10:46:34;;;;;;;3.40;2.17;;;15.30;73.40;;;;;;4945875;28;20467;-46
2021/05/18 10:49:05;;;;;;;2.47;2.00;;;15.20;74.20;;;;;;4947066;28;20455;-46
2021/05/18 10:51:40;;;;;;;2.63;1.23;;;15.20;75.20;;;;;;4954507;28;21013;-46
2021/05/18 10:54:16;;;;;;;0.90;0.70;;;15.20;74.00;;;;;;4950084;28;20466;-46
2021/05/18 10:57:00;;;;;;;1.57;0.73;;;15.10;72.80;;;;;;4948938;28;20458;-46
2021/05/18 10:59:39;;;;;;;0.87;0.80;;;15.10;71.90;;;;;;4952902;28;20877;-46
2021/05/18 11:02:20;;;;;;;0.77;0.77;;;15.00;72.20;;;;;;4948470;28;20474;-46
2021/05/18 11:04:50;;;;;;;1.37;0.50;;;15.00;72.60;;;;;;4953541;28;20548;-46
2021/05/18 11:07:29;;;;;;;0.50;0.50;;;15.00;72.00;;;;;;4954564;28;20565;-46
2021/05/18 11:09:57;;;;;;;0.87;0.40;;;15.00;72.10;;;;;;4962931;28;20960;-46
2021/05/18 11:12:26;;;;;;;2.00;0.40;;;15.00;70.80;;;;;;4954712;28;20474;-46
2021/05/18 11:15:07;;;;;;;1.17;0.40;;;14.90;71.30;;;;;;4952326;28;20466;-46
2021/05/18 11:17:38;;;;;;;13.60;6.87;;;14.80;72.00;;;;;;4955740;28;20789;-46
2021/05/18 11:25:56;;;;;;;1.07;0.97;;;14.90;75.40;;;;;;4958610;28;20459;-46
2021/05/18 11:28:32;;;;;;;0.80;0.80;;;15.00;73.60;;;;;;4949940;28;20466;-46
2021/05/18 11:31:08;;;;;;;0.63;0.63;;;15.10;75.10;;;;;;4950799;28;20487;-46
2021/05/18 11:33:42;;;;;;;0.80;0.60;;;15.30;74.30;;;;;;4951748;28;20952;-46
2021/05/18 11:36:11;;;;;;;0.50;0.50;;;15.40;75.80;;;;;;4952560;28;20964;-46
2021/05/18 11:38:54;;;;;;;1.27;0.63;;;15.50;71.80;;;;;;4951063;28;20467;-47
2021/05/18 11:41:24;;;;;;;0.60;0.60;;;15.50;70.50;;;;;;4952694;28;20466;-47
2021/05/18 11:43:57;;;;;;;0.70;0.50;;;15.60;70.00;;;;;;4955101;28;20460;-47
2021/05/18 11:46:27;;;;;;;0.60;0.50;;;15.60;68.90;;;;;;4955175;28;20521;-46
2021/05/18 11:49:00;;;;;;;0.50;0.50;;;15.50;70.30;;;;;;4957714;28;20485;-46
2021/05/18 11:51:30;;;;;;;0.60;0.60;;;15.50;68.00;;;;;;4955468;28;20521;-46
2021/05/18 11:54:20;;;;;;;0.70;0.60;;;15.50;67.50;;;;;;4957383;28;20474;-46
2021/05/18 11:56:53;;;;;;;1.43;0.53;;;15.50;68.30;;;;;;4952174;28;20481;-46
2021/05/18 11:59:25;;;;;;;0.53;0.53;;;15.50;68.00;;;;;;4955780;28;20459;-45
2021/05/18 12:02:00;;;;;;;0.80;0.40;;;15.60;68.20;;;;;;4958545;28;20953;-46
2021/05/18 12:04:30;;;;;;;0.77;0.40;;;15.70;66.20;;;;;;4954803;28;20456;-46
2021/05/18 12:07:08;;;;;;;0.70;0.60;;;15.70;67.20;;;;;;4957254;28;20466;-46
2021/05/18 12:09:39;;;;;;;0.40;0.30;;;15.80;66.70;;;;;;4949717;28;20497;-46
2021/05/18 12:12:10;;;;;;;0.40;0.30;;;15.90;65.40;;;;;;4953182;28;20487;-46
2021/05/18 12:14:49;;;;;;;0.50;0.30;;;16.10;63.70;;;;;;4956198;28;20517;-46
2021/05/18 12:17:25;;;;;;;0.40;0.27;;;16.10;62.60;;;;;;4956580;28;20466;-46
2021/05/18 12:19:53;;;;;;;0.77;0.33;;;16.20;64.00;;;;;;4954853;28;20819;-46
2021/05/18 12:22:22;;;;;;;0.40;0.33;;;16.30;64.30;;;;;;4953590;28;20459;-46
2021/05/18 12:24:51;;;;;;;0.50;0.30;;;16.30;64.30;;;;;;4953018;28;20533;-46
2021/05/18 12:27:19;;;;;;;0.40;0.20;;;16.20;63.00;;;;;;4953697;28;20541;-46
2021/05/18 12:29:58;;;;;;;0.50;0.40;;;16.20;64.50;;;;;;4954572;28;20574;-46
2021/05/18 12:32:28;;;;;;;0.60;0.40;;;16.20;65.30;;;;;;4951993;28;20837;-46
2021/05/18 12:35:17;;;;;;;1.60;0.30;;;16.20;64.30;;;;;;4954147;28;20463;-46
2021/05/18 12:37:48;;;;;;;0.97;0.67;;;16.20;63.00;;;;;;4956533;28;20446;-46
2021/05/18 12:40:33;;;;;;;0.40;0.20;;;16.20;61.50;;;;;;4957670;28;20824;-46
2021/05/18 12:43:12;;;;;;;0.60;0.37;;;16.20;61.90;;;;;;4956924;28;20459;-46
2021/05/18 12:45:41;;;;;;;1.73;0.47;;;16.20;61.20;;;;;;4954873;28;20597;-45
2021/05/18 12:48:12;;;;;;;1.20;0.30;;;16.20;61.40;;;;;;4956019;28;20462;-46
2021/05/18 12:50:50;;;;;;;1.70;0.30;;;16.30;61.20;;;;;;4954927;28;20482;-46
2021/05/18 12:53:30;;;;;;;0.63;0.60;;;16.40;61.70;;;;;;4957026;28;20439;-46
2021/05/18 12:55:59;;;;;;;0.70;0.50;;;16.40;62.00;;;;;;4954941;28;21037;-46
2021/05/18 12:58:33;;;;;;;1.70;0.40;;;16.40;61.30;;;;;;4954597;28;21783;-46
2021/05/18 13:01:12;;;;;;;1.00;0.80;;;16.40;60.30;;;;;;4955344;28;20851;-46
2021/05/18 13:03:42;;;;;;;0.93;0.70;;;16.30;58.90;;;;;;4954232;28;20458;-46
2021/05/18 13:06:12;;;;;;;0.60;0.40;;;16.30;58.90;;;;;;4952901;28;20466;-46
2021/05/18 13:08:41;;;;;;;0.97;0.77;;;16.30;59.60;;;;;;4951768;28;20499;-46
2021/05/18 13:12:11;;;;;;;0.50;0.50;;;16.40;58.90;;;;;;4952878;28;20503;-46
2021/05/18 13:14:05;;;;;;;1.93;0.60;;;16.40;60.20;;;;;;4954107;28;20876;-46
2021/05/18 13:16:35;;;;;;;0.87;0.77;;;16.40;58.80;;;;;;4953035;28;20475;-46
2021/05/18 13:19:14;;;;;;;0.90;0.57;;;16.40;60.10;;;;;;4955922;28;20463;-46
2021/05/18 13:22:00;;;;;;;1.83;0.60;;;16.30;58.20;;;;;;4964397;28;20967;-45
2021/05/18 13:26:57;;;;;;;0.80;0.70;;;16.20;59.20;;;;;;4950178;28;20474;-45
2021/05/18 13:29:25;;;;;;;0.70;0.70;;;16.10;60.20;;;;;;4952245;28;20487;-46
2021/05/18 13:31:55;;;;;;;1.83;0.53;;;16.10;61.40;;;;;;4954504;28;20896;-46
2021/05/18 13:34:43;;;;;;;2.03;0.70;;;16.10;61.50;;;;;;4964969;28;20831;-45
2021/05/18 13:37:11;;;;;;;2.00;0.83;;;16.10;60.60;;;;;;4955242;28;20514;-46
2021/05/18 13:39:39;;;;;;;1.97;0.50;;;16.10;60.70;;;;;;4955849;28;20463;-46
2021/05/18 13:42:08;;;;;;;0.50;0.50;;;16.20;59.60;;;;;;4956335;28;20455;-46
2021/05/18 13:44:38;;;;;;;1.80;0.53;;;16.10;59.20;;;;;;4953229;28;20455;-46
2021/05/18 13:47:06;;;;;;;2.33;0.60;;;16.00;59.30;;;;;;4953897;28;20479;-45
2021/05/18 13:49:34;;;;;;;2.30;0.40;;;15.80;59.90;;;;;;4953955;28;20467;-45
2021/05/18 13:52:20;;;;;;;0.70;0.47;;;15.60;60.30;;;;;;4954213;28;20927;-45
2021/05/18 13:54:50;;;;;;;1.07;0.60;;;15.50;60.50;;;;;;4954362;28;20467;-45
2021/05/18 13:57:22;;;;;;;2.63;0.50;;;15.40;61.70;;;;;;4955014;28;20463;-45
2021/05/18 13:59:51;;;;;;;0.93;0.40;;;15.30;61.70;;;;;;4953238;28;20465;-45
2021/05/18 14:02:20;;;;;;;0.60;0.47;;;15.20;62.50;;;;;;4955080;28;20899;-45
2021/05/18 14:04:48;;;;;;;2.20;0.43;;;15.00;62.60;;;;;;4949284;28;21003;-45
2021/05/18 14:10:04;;;;;;;0.60;0.40;;;14.80;65.00;;;;;;4953579;28;20459;-45
2021/05/18 14:12:32;;;;;;;1.37;0.40;;;14.80;65.40;;;;;;4954524;28;20501;-45
2021/05/18 14:14:59;;;;;;;0.70;0.50;;;14.70;65.50;;;;;;4953632;28;20458;-45
2021/05/18 14:17:27;;;;;;;0.87;0.40;;;14.70;65.80;;;;;;4956000;28;20462;-45
2021/05/18 14:19:56;;;;;;;1.40;0.40;;;14.60;67.00;;;;;;4953716;28;20682;-45
2021/05/18 14:22:24;;;;;;;0.70;0.50;;;14.60;67.30;;;;;;4955696;28;20801;-46
2021/05/18 14:27:20;;;;;;;0.50;0.37;;;14.60;69.00;;;;;;4950716;28;20988;-45
2021/05/18 14:29:52;;;;;;;0.60;0.60;;;14.60;69.50;;;;;;4949862;28;20479;-45
2021/05/18 14:32:22;;;;;;;0.60;0.47;;;14.80;69.90;;;;;;4952086;28;20540;-46
2021/05/18 14:34:52;;;;;;;1.27;0.43;;;14.90;70.10;;;;;;4951060;28;20455;-46
2021/05/18 14:37:23;;;;;;;1.33;0.70;;;15.10;69.70;;;;;;4952624;28;20455;-46
2021/05/18 14:40:05;;;;;;;1.43;0.73;;;15.30;69.80;;;;;;4951916;28;20455;-46
2021/05/18 14:42:53;;;;;;;0.57;0.50;;;15.50;71.10;;;;;;4953237;28;20463;-46
2021/05/18 14:45:26;;;;;;;1.60;0.60;;;15.60;69.60;;;;;;4953005;28;20471;-46
2021/05/18 14:56:17;;;;;;;4.53;1.73;;;16.20;67.10;;;;;;4968346;28;20497;-50
2021/05/18 14:58:46;;;;;;;1.60;0.50;;;16.40;66.30;;;;;;4953071;28;20998;-50
2021/05/18 15:01:13;;;;;;;1.03;0.50;;;16.50;65.10;;;;;;4953498;28;20462;-50
2021/05/18 15:03:41;;;;;;;1.33;0.50;;;16.60;63.90;;;;;;4952080;28;20463;-50
2021/05/18 15:06:10;;;;;;;3.40;0.57;;;16.60;64.00;;;;;;4951813;28;20569;-50
2021/05/18 15:08:38;;;;;;;0.50;0.50;;;16.60;63.60;;;;;;4953884;28;20872;-50
2021/05/18 15:11:08;;;;;;;1.57;0.50;;;16.70;64.10;;;;;;4952326;28;20454;-50
2021/05/18 15:13:37;;;;;;;2.00;0.60;;;16.80;63.50;;;;;;4952501;28;20814;-50
2021/05/18 15:16:05;;;;;;;3.13;0.50;;;16.70;63.80;;;;;;4953602;28;20957;-50
2021/05/18 15:18:34;;;;;;;0.70;0.63;;;16.70;64.40;;;;;;4966709;28;20447;-50
2021/05/18 15:21:03;;;;;;;0.70;0.50;;;16.70;64.10;;;;;;4951982;28;20490;-50
2021/05/18 15:23:32;;;;;;;0.90;0.70;;;16.60;64.00;;;;;;4951412;28;20467;-50
2021/05/18 15:26:00;;;;;;;0.80;0.57;;;16.60;64.10;;;;;;4952190;28;20961;-50
2021/05/18 15:28:30;;;;;;;1.03;0.83;;;16.60;64.00;;;;;;4951573;28;20465;-50
2021/05/18 15:30:58;;;;;;;1.27;0.70;;;16.60;64.20;;;;;;4951275;28;20827;-50
2021/05/18 15:33:27;;;;;;;0.70;0.50;;;16.60;64.30;;;;;;4953505;28;20462;-50
2021/05/18 15:35:55;;;;;;;0.77;0.47;;;16.70;64.30;;;;;;4954373;28;20482;-50
2021/05/18 15:38:23;;;;;;;0.60;0.50;;;16.70;64.20;;;;;;4949831;28;20467;-50
2021/05/18 15:40:51;;;;;;;1.23;0.40;;;16.80;64.10;;;;;;4951160;28;20470;-50
2021/05/18 15:43:19;;;;;;;0.50;0.40;;;16.80;63.30;;;;;;4952923;28;20845;-50
2021/05/18 15:45:48;;;;;;;1.20;0.50;;;16.80;63.50;;;;;;4954540;28;20470;-50
2021/05/18 15:48:16;;;;;;;1.27;0.77;;;16.90;63.30;;;;;;4952442;28;20470;-50
2021/05/18 15:50:44;;;;;;;1.03;0.70;;;16.80;64.00;;;;;;4954096;28;20512;-50
2021/05/18 15:53:12;;;;;;;0.60;0.53;;;16.80;63.70;;;;;;4950629;28;20499;-50
2021/05/18 15:55:41;;;;;;;1.80;0.50;;;16.70;63.80;;;;;;4950799;28;20464;-50
2021/05/18 15:58:09;;;;;;;1.90;0.73;;;16.60;64.30;;;;;;4951162;28;20948;-50
2021/05/18 16:00:40;;;;;;;0.70;0.60;;;16.60;63.00;;;;;;4949374;28;20485;-50
2021/05/18 16:03:08;;;;;;;0.50;0.40;;;16.50;62.50;;;;;;4950011;28;21014;-50
2021/05/18 16:05:36;;;;;;;0.50;0.40;;;16.40;61.90;;;;;;4952937;28;20467;-50
2021/05/18 16:11:00;;;;;;;0.70;0.60;;;16.30;58.60;;;;;;4960402;28;20986;-50
2021/05/18 16:13:29;;;;;;;0.50;0.50;;;16.10;59.80;;;;;;4950400;28;21006;-49
2021/05/18 16:16:06;;;;;;;0.80;0.70;;;16.10;61.00;;;;;;4954248;28;20447;-50
2021/05/18 16:18:41;;;;;;;1.57;0.90;;;16.00;62.40;;;;;;4951271;28;20571;-50
2021/05/18 16:21:11;;;;;;;1.30;0.60;;;16.00;64.90;;;;;;4951655;28;20964;-50
2021/05/18 16:23:42;;;;;;;0.73;0.50;;;16.00;63.90;;;;;;4950521;28;20535;-50
2021/05/18 16:26:10;;;;;;;1.63;0.53;;;16.00;62.50;;;;;;4949493;28;21018;-50
2021/05/18 16:28:38;;;;;;;0.60;0.60;;;16.00;62.40;;;;;;4952017;28;20459;-50
2021/05/18 16:31:07;;;;;;;1.73;0.60;;;16.00;63.10;;;;;;4950905;28;20470;-50
2021/05/18 16:33:37;;;;;;;1.50;0.70;;;16.00;61.40;;;;;;4957304;28;20482;-50
2021/05/18 16:36:07;;;;;;;0.60;0.60;;;15.90;60.60;;;;;;4954477;28;20459;-50
2021/05/18 16:38:36;;;;;;;0.60;0.50;;;15.90;60.40;;;;;;4953633;28;22611;-50
2021/05/18 16:41:15;;;;;;;0.90;0.70;;;15.80;60.90;;;;;;4955825;28;20460;-50
2021/05/18 16:43:45;;;;;;;0.50;0.50;;;15.80;62.10;;;;;;4955712;28;20986;-50
2021/05/18 16:46:14;;;;;;;1.37;0.80;;;15.80;61.60;;;;;;4955100;28;20455;-50
2021/05/18 16:48:45;;;;;;;0.60;0.60;;;15.70;61.70;;;;;;4955578;28;20828;-50
2021/05/18 16:51:13;;;;;;;1.47;0.90;;;15.70;62.90;;;;;;4956352;28;20485;-50
2021/05/18 16:53:42;;;;;;;0.73;0.63;;;15.60;63.20;;;;;;4953731;28;20492;-50
2021/05/18 16:56:11;;;;;;;1.33;0.90;;;15.50;63.00;;;;;;4953992;28;20475;-50
2021/05/18 16:58:39;;;;;;;0.90;0.73;;;15.50;62.80;;;;;;4953714;28;20953;-50
2021/05/18 17:01:07;;;;;;;1.00;0.87;;;15.50;63.30;;;;;;4954437;28;20467;-49
2021/05/18 17:03:35;;;;;;;1.03;0.70;;;15.50;64.60;;;;;;4953536;28;21249;-50
2021/05/18 17:06:04;;;;;;;1.43;0.80;;;15.50;64.50;;;;;;4952846;28;20526;-50
2021/05/18 17:08:34;;;;;;;0.60;0.60;;;15.50;65.00;;;;;;4954927;28;20506;-50
2021/05/18 17:11:03;;;;;;;0.80;0.70;;;15.50;64.80;;;;;;4954729;28;20819;-50
2021/05/18 17:13:33;;;;;;;1.17;0.90;;;15.40;65.00;;;;;;4952607;28;20494;-50
2021/05/18 17:16:04;;;;;;;1.10;0.80;;;15.40;65.20;;;;;;4952515;28;20459;-49
2021/05/18 17:18:33;;;;;;;0.97;0.97;;;15.30;65.30;;;;;;4951447;28;20476;-50
2021/05/18 17:21:01;;;;;;;1.10;1.00;;;15.40;65.10;;;;;;4949049;28;21513;-50
2021/05/18 17:23:30;;;;;;;1.03;0.93;;;15.30;65.30;;;;;;4953781;28;21210;-49
2021/05/18 17:25:58;;;;;;;0.80;0.77;;;15.30;65.90;;;;;;4952692;28;20473;-50
2021/05/18 17:28:27;;;;;;;1.00;1.00;;;15.30;66.20;;;;;;4952558;28;21138;-52
2021/05/18 17:30:55;;;;;;;1.40;1.00;;;15.30;66.70;;;;;;4951011;28;20582;-50
2021/05/18 17:33:25;;;;;;;2.07;0.83;;;15.20;67.00;;;;;;4953655;28;20502;-50
2021/05/18 17:35:54;;;;;;;1.03;0.90;;;15.20;67.20;;;;;;4951265;28;20872;-50
2021/05/18 17:38:22;;;;;;;0.93;0.80;;;15.20;67.60;;;;;;4953665;28;20471;-50
2021/05/18 17:40:50;;;;;;;2.00;0.93;;;15.20;68.10;;;;;;4952126;28;20471;-49
2021/05/18 17:43:19;;;;;;;2.43;0.87;;;15.20;68.50;;;;;;4953675;28;20454;-50
2021/05/18 17:45:49;;;;;;;2.47;0.90;;;15.20;68.60;;;;;;4953334;28;20459;-50
2021/05/18 17:48:17;;;;;;;1.30;1.00;;;15.10;68.60;;;;;;4954290;28;20880;-50
2021/05/18 17:50:47;;;;;;;1.10;0.80;;;15.10;68.20;;;;;;4954897;28;20799;-50
2021/05/18 17:53:15;;;;;;;1.10;1.00;;;15.10;68.40;;;;;;4954274;28;20552;-50
2021/05/18 17:55:43;;;;;;;0.83;0.80;;;15.10;68.00;;;;;;4952644;28;21115;-50
2021/05/18 17:58:13;;;;;;;1.83;0.70;;;15.10;68.00;;;;;;4952952;28;20468;-50
2021/05/18 18:00:40;;;;;;;1.13;0.83;;;15.10;68.20;;;;;;4952150;28;20459;-49
2021/05/18 18:03:09;;;;;;;0.80;0.80;;;15.00;68.40;;;;;;4951632;28;20463;-50
2021/05/18 18:05:37;;;;;;;0.83;0.83;;;14.90;68.60;;;;;;4946405;28;20468;-50
2021/05/18 18:08:05;;;;;;;0.70;0.67;;;15.00;68.80;;;;;;4956363;28;20463;-49
2021/05/18 18:10:33;;;;;;;1.13;0.90;;;14.90;68.80;;;;;;4955898;28;20469;-50
2021/05/18 18:13:01;;;;;;;1.00;0.90;;;14.90;69.20;;;;;;4955231;28;20876;-50
2021/05/18 18:15:30;;;;;;;3.83;1.93;;;15.00;68.70;;;;;;4954128;28;20509;-50
2021/05/18 18:17:58;;;;;;;1.20;1.10;;;14.90;67.50;;;;;;4951300;28;20502;-50
2021/05/18 18:20:26;;;;;;;2.00;1.20;;;14.90;67.50;;;;;;4955633;28;20496;-50